createdAt,value
2018-11-03T00:00:14.225Z,3.00
2018-11-03T00:05:17.705Z,4.00
2018-11-03T00:10:21.250Z,3.75
2018-11-03T00:15:24.707Z,3.00
2018-11-03T00:20:28.163Z,3.00
2018-11-03T00:25:31.630Z,3.50
2018-11-03T00:30:35.119Z,3.00
2018-11-03T00:35:38.612Z,4.00
2018-11-03T00:40:42.098Z,3.00
2018-11-03T00:45:45.559Z,4.00
2018-11-03T00:50:49.012Z,3.20
2018-11-03T00:55:52.447Z,3.00
2018-11-03T01:00:54.931Z,3.00
2018-11-03T01:05:58.384Z,3.75
2018-11-03T01:11:01.902Z,2.60
2018-11-03T01:16:05.726Z,3.25
2018-11-03T01:21:09.462Z,2.75
2018-11-03T01:26:12.917Z,3.00
2018-11-03T01:31:16.348Z,3.00
2018-11-03T01:36:19.906Z,3.00
2018-11-03T01:41:23.352Z,3.00
2018-11-03T01:46:26.796Z,2.25
2018-11-03T01:51:30.294Z,2.75
2018-11-03T01:56:33.764Z,2.60
2018-11-03T02:01:37.213Z,2.00
2018-11-03T02:06:40.723Z,2.40
2018-11-03T02:11:44.215Z,3.00
2018-11-03T02:16:47.688Z,2.00
2018-11-03T02:21:51.183Z,3.50
2018-11-03T02:26:55.000Z,3.60
2018-11-03T02:31:58.457Z,2.20
2018-11-03T02:37:01.893Z,1.80
2018-11-03T02:42:05.484Z,2.50
2018-11-03T02:47:08.962Z,2.00
2018-11-03T02:52:12.465Z,3.00
2018-11-03T02:57:15.918Z,3.00
2018-11-03T03:02:19.364Z,2.25
2018-11-03T03:07:22.802Z,2.00
2018-11-03T03:12:26.290Z,2.00
2018-11-03T03:17:29.735Z,2.00
2018-11-03T03:22:33.203Z,2.75
2018-11-03T03:27:36.681Z,2.00
2018-11-03T03:32:40.284Z,1.80
2018-11-03T03:37:43.725Z,2.00
2018-11-03T03:42:47.161Z,2.00
2018-11-03T03:47:50.622Z,2.00
2018-11-03T03:52:54.067Z,2.25
2018-11-03T03:57:57.507Z,2.00
2018-11-03T04:03:00.949Z,2.20
2018-11-03T04:08:04.420Z,2.25
2018-11-03T04:13:07.866Z,2.00
2018-11-03T04:18:11.319Z,1.75
2018-11-03T04:23:14.773Z,2.00
2018-11-03T04:28:18.262Z,2.75
2018-11-03T04:33:21.734Z,2.00
2018-11-03T04:38:25.182Z,2.00
2018-11-03T04:43:28.614Z,2.25
2018-11-03T04:48:32.138Z,2.00
2018-11-03T04:53:35.578Z,2.00
2018-11-03T04:58:39.033Z,2.00
2018-11-03T05:03:42.494Z,2.00
2018-11-03T05:08:46.123Z,2.00
2018-11-03T05:13:49.577Z,2.00
2018-11-03T05:18:53.038Z,2.00
2018-11-03T05:23:56.511Z,2.00
2018-11-03T05:28:59.991Z,1.40
2018-11-03T05:34:03.447Z,2.00
2018-11-03T05:39:09.135Z,1.40
2018-11-03T05:44:13.041Z,1.60
2018-11-03T05:49:16.482Z,2.00
2018-11-03T05:54:20.033Z,1.00
2018-11-03T05:59:23.405Z,1.75
2018-11-03T06:04:26.872Z,1.00
2018-11-03T06:09:30.323Z,1.50
2018-11-03T06:14:33.771Z,1.25
2018-11-03T06:19:37.233Z,1.20
2018-11-03T06:24:40.830Z,1.00
2018-11-03T06:29:44.277Z,1.20
2018-11-03T06:34:47.725Z,1.00
2018-11-03T06:39:51.275Z,1.00
2018-11-03T06:44:54.735Z,1.75
2018-11-03T06:49:58.214Z,1.00
2018-11-03T06:55:01.684Z,2.00
2018-11-03T07:00:07.834Z,2.00
2018-11-03T07:05:11.382Z,2.25
2018-11-03T07:10:14.776Z,4.40
2018-11-03T07:15:18.255Z,5.00
2018-11-03T07:20:21.732Z,5.00
2018-11-03T07:25:25.182Z,5.00
2018-11-03T07:30:28.644Z,4.40
2018-11-03T07:35:32.080Z,4.00
2018-11-03T07:40:35.918Z,8.00
2018-11-03T07:45:39.421Z,8.00
2018-11-03T07:50:42.870Z,5.60
2018-11-03T07:55:46.317Z,7.50
2018-11-03T08:00:49.839Z,5.00
2018-11-03T08:05:53.292Z,5.00
2018-11-03T08:10:56.784Z,5.80
2018-11-03T08:16:00.249Z,5.00
2018-11-03T08:21:03.758Z,7.20
2018-11-03T08:26:07.226Z,6.50
2018-11-03T08:31:10.694Z,6.40
2018-11-03T08:36:14.213Z,5.25
2018-11-03T08:41:17.712Z,6.00
2018-11-03T08:46:21.221Z,17.00
2018-11-03T08:51:24.694Z,18.00
2018-11-03T08:56:28.161Z,22.50
2018-11-03T09:01:31.607Z,13.00
2018-11-03T09:06:35.301Z,11.80
2018-11-03T09:11:38.789Z,9.60
2018-11-03T09:16:42.274Z,9.50
2018-11-03T09:21:45.820Z,8.25
2018-11-03T09:26:49.231Z,8.00
2018-11-03T09:31:52.817Z,7.00
2018-11-03T09:36:56.186Z,7.00
2018-11-03T09:41:59.662Z,6.50
2018-11-03T09:47:03.127Z,7.25
2018-11-03T09:52:06.569Z,7.00
2018-11-03T09:57:10.019Z,5.50
2018-11-03T10:02:13.512Z,6.50
2018-11-03T10:07:16.994Z,7.40
2018-11-03T10:12:20.490Z,8.00
2018-11-03T10:17:24.020Z,6.00
2018-11-03T10:22:27.629Z,7.75
2018-11-03T10:27:30.950Z,12.00
2018-11-03T10:32:34.403Z,10.25
2018-11-03T10:37:37.982Z,9.80
2018-11-03T10:42:41.742Z,11.00
2018-11-03T10:47:45.568Z,8.40
2018-11-03T10:52:49.110Z,8.00
2018-11-03T10:57:52.567Z,8.00
2018-11-03T11:03:01.416Z,8.00
2018-11-03T11:08:10.666Z,7.80
2018-11-03T11:13:16.885Z,7.00
2018-11-03T11:18:20.394Z,7.40
2018-11-03T11:23:23.907Z,7.50
2018-11-03T11:28:27.346Z,7.25
2018-11-03T11:33:30.847Z,7.00
2018-11-03T11:44:02.318Z,18.00
2018-11-03T11:49:05.908Z,17.60
2018-11-03T11:54:09.358Z,17.00
2018-11-03T11:59:12.823Z,18.00
2018-11-03T12:04:16.278Z,16.25
2018-11-03T12:09:19.730Z,17.40
2018-11-03T12:14:23.204Z,15.50
2018-11-03T12:47:43.474Z,10.60
2018-11-03T12:52:47.176Z,10.75
2018-11-03T12:57:50.688Z,9.00
2018-11-03T13:02:54.171Z,7.75
2018-11-03T13:07:57.648Z,8.75
2018-11-03T13:13:01.111Z,8.50
2018-11-03T13:18:04.653Z,7.00
2018-11-03T13:23:08.103Z,7.80
2018-11-03T13:28:11.538Z,7.25
2018-11-03T13:33:14.992Z,7.60
2018-11-03T13:38:18.482Z,5.50
2018-11-03T13:43:21.998Z,5.00
2018-11-03T13:48:25.486Z,4.75
2018-11-03T13:53:29.015Z,5.80
2018-11-03T13:58:32.706Z,7.00
2018-11-03T14:03:36.179Z,4.40
2018-11-03T14:08:39.626Z,6.40
2018-11-03T14:13:43.116Z,8.40
2018-11-03T14:18:46.574Z,8.50
2018-11-03T14:23:50.079Z,7.00
2018-11-03T14:28:53.691Z,5.50
2018-11-03T14:33:57.150Z,6.20
2018-11-03T14:39:00.694Z,5.75
2018-11-03T14:44:04.149Z,10.40
2018-11-03T14:49:08.154Z,15.00
2018-11-03T14:54:11.683Z,16.00
2018-11-03T14:59:15.259Z,20.00
2018-11-03T15:04:18.727Z,17.75
2018-11-03T15:09:22.201Z,16.40
2018-11-03T15:14:25.980Z,17.25
2018-11-03T15:19:29.356Z,15.25
2018-11-03T15:24:32.854Z,14.50
2018-11-03T15:29:36.301Z,13.75
2018-11-03T15:34:39.740Z,14.00
2018-11-03T15:39:43.272Z,14.00
2018-11-03T15:44:47.157Z,12.00
2018-11-03T15:49:50.640Z,12.00
2018-11-03T15:54:54.173Z,11.20
2018-11-03T15:59:57.614Z,12.50
2018-11-03T16:05:01.148Z,10.00
2018-11-03T16:10:05.856Z,10.00
2018-11-03T16:15:10.673Z,11.20
2018-11-03T16:20:14.218Z,9.40
2018-11-03T16:25:17.710Z,9.00
2018-11-03T16:30:21.226Z,9.25
2018-11-03T16:35:24.722Z,10.00
2018-11-03T16:40:28.162Z,8.50
2018-11-03T16:45:31.838Z,8.60
2018-11-03T16:50:35.291Z,9.00
2018-11-03T16:55:38.884Z,7.00
2018-11-03T17:00:42.315Z,7.80
2018-11-03T17:05:45.768Z,8.00
2018-11-03T17:10:49.218Z,8.00
2018-11-03T17:15:52.678Z,6.40
2018-11-03T17:20:56.173Z,8.40
2018-11-03T17:25:59.610Z,7.00
2018-11-03T17:31:03.088Z,7.00
2018-11-03T17:36:06.626Z,6.80
2018-11-03T17:41:10.027Z,5.00
2018-11-03T17:46:13.472Z,7.00
2018-11-03T17:51:16.910Z,7.00
2018-11-03T17:56:20.433Z,6.00
2018-11-03T18:01:23.982Z,6.00
2018-11-03T18:06:27.455Z,6.75
2018-11-03T18:11:30.907Z,6.00
2018-11-03T18:16:34.430Z,6.00
2018-11-03T18:21:38.542Z,7.00
2018-11-03T18:26:42.097Z,6.00
2018-11-03T18:31:45.551Z,5.25
2018-11-03T18:36:49.126Z,6.75
2018-11-03T18:41:52.688Z,5.25
2018-11-03T18:46:56.164Z,6.00
2018-11-03T18:51:59.640Z,5.75
2018-11-03T18:57:03.102Z,6.00
2018-11-03T19:02:06.732Z,5.75
2018-11-03T19:07:10.191Z,6.00
2018-11-03T19:12:13.670Z,5.75
2018-11-03T19:17:17.177Z,5.50
2018-11-03T19:22:20.618Z,6.00
2018-11-03T19:27:24.055Z,5.60
2018-11-03T19:32:27.530Z,5.50
2018-11-03T19:37:30.965Z,6.00
2018-11-03T19:42:35.310Z,5.25
2018-11-03T19:47:38.749Z,6.40
2018-11-03T19:52:42.221Z,5.75
2018-11-03T19:57:45.691Z,5.50
2018-11-03T20:02:49.235Z,5.50
2018-11-03T20:07:52.838Z,6.00
2018-11-03T20:12:59.390Z,5.60
2018-11-03T20:18:02.976Z,5.00
2018-11-03T20:23:06.424Z,6.00
2018-11-03T20:28:09.887Z,5.80
2018-11-03T20:33:13.430Z,5.00
2018-11-03T20:38:16.975Z,5.00
2018-11-03T20:43:20.419Z,6.00
2018-11-03T20:48:23.882Z,6.00
2018-11-03T20:53:27.432Z,4.75
2018-11-03T20:58:30.883Z,6.00
2018-11-03T21:03:34.372Z,8.00
2018-11-03T21:08:37.874Z,6.00
2018-11-03T21:13:41.356Z,5.00
2018-11-03T21:18:44.890Z,5.00
2018-11-03T21:23:48.371Z,4.75
2018-11-03T21:28:51.793Z,5.00
2018-11-03T21:33:55.306Z,5.00
2018-11-03T21:38:58.761Z,5.25
2018-11-03T21:44:02.241Z,6.00
2018-11-03T21:49:05.880Z,4.40
2018-11-03T21:54:09.399Z,5.00
2018-11-03T21:59:12.857Z,4.80
2018-11-03T22:04:16.333Z,5.00
2018-11-03T22:09:20.553Z,5.00
2018-11-03T22:14:24.028Z,3.00
2018-11-03T22:19:27.518Z,5.00
2018-11-03T22:24:30.962Z,4.00
2018-11-03T22:29:34.417Z,4.50
2018-11-03T22:34:37.885Z,4.80
2018-11-03T22:39:41.350Z,4.60
2018-11-03T22:44:44.784Z,3.25
2018-11-03T22:49:48.223Z,4.50
2018-11-03T22:54:51.685Z,5.00
2018-11-03T22:59:55.116Z,5.00
2018-11-03T23:04:58.556Z,5.75
2018-11-03T23:10:02.859Z,4.80
2018-11-03T23:15:07.810Z,5.00
2018-11-03T23:20:12.868Z,5.00
2018-11-03T23:25:16.375Z,5.00
2018-11-03T23:30:20.118Z,3.50
2018-11-03T23:35:23.702Z,4.00
2018-11-03T23:40:27.388Z,5.00
2018-11-03T23:45:31.009Z,4.75
2018-11-03T23:50:34.761Z,4.75
2018-11-03T23:55:38.238Z,4.25
